createdAt,value
2017-05-16T00:01:14.544Z,7
2017-05-16T00:02:33.238Z,7
2017-05-16T00:03:51.876Z,7
2017-05-16T00:05:10.570Z,6.9
2017-05-16T00:06:29.209Z,6.9
2017-05-16T00:07:47.860Z,6.9
2017-05-16T00:09:06.534Z,6.9
2017-05-16T00:10:25.171Z,6.9
2017-05-16T00:11:43.827Z,6.8
2017-05-16T00:13:02.476Z,6.8
2017-05-16T00:14:21.119Z,6.8
2017-05-16T00:15:39.813Z,6.8
2017-05-16T00:16:58.452Z,6.8
2017-05-16T00:18:17.145Z,6.7
2017-05-16T00:19:35.794Z,6.7
2017-05-16T00:20:54.509Z,6.7
2017-05-16T00:22:13.195Z,6.7
2017-05-16T00:23:31.831Z,6.7
2017-05-16T00:24:50.476Z,6.7
2017-05-16T00:26:09.127Z,6.7
2017-05-16T00:27:27.774Z,6.7
2017-05-16T00:28:46.460Z,6.7
2017-05-16T00:30:05.100Z,6.7
2017-05-16T00:31:23.746Z,6.7
2017-05-16T00:32:42.417Z,6.7
2017-05-16T00:34:01.063Z,6.7
2017-05-16T00:35:19.703Z,6.7
2017-05-16T00:36:38.390Z,6.6
2017-05-16T00:37:57.029Z,6.6
2017-05-16T00:39:15.672Z,6.6
2017-05-16T00:40:34.319Z,6.6
2017-05-16T00:41:52.961Z,6.5
2017-05-16T00:43:11.595Z,6.5
2017-05-16T00:44:30.294Z,6.5
2017-05-16T00:45:48.969Z,6.5
2017-05-16T00:47:07.611Z,6.5
2017-05-16T00:48:26.248Z,6.5
2017-05-16T00:49:44.899Z,6.5
2017-05-16T00:51:03.552Z,6.5
2017-05-16T00:52:22.218Z,6.4
2017-05-16T00:53:40.862Z,6.4
2017-05-16T00:54:59.533Z,6.4
2017-05-16T00:56:18.176Z,6.4
2017-05-16T00:57:36.823Z,6.4
2017-05-16T00:58:55.470Z,6.4
2017-05-16T01:00:14.128Z,6.4
2017-05-16T01:01:32.792Z,6.3
2017-05-16T01:02:51.430Z,6.3
2017-05-16T01:04:10.071Z,6.3
2017-05-16T01:05:28.717Z,6.4
2017-05-16T01:06:47.436Z,6.5
2017-05-16T01:08:06.096Z,6.5
2017-05-16T01:09:24.750Z,6.5
2017-05-16T01:10:43.399Z,6.5
2017-05-16T01:12:02.043Z,6.6
2017-05-16T01:13:20.731Z,6.6
2017-05-16T01:14:39.376Z,6.6
2017-05-16T01:15:58.085Z,6.6
2017-05-16T01:17:16.780Z,6.5
2017-05-16T01:18:35.447Z,6.5
2017-05-16T01:19:54.116Z,6.4
2017-05-16T01:21:12.766Z,6.3
2017-05-16T01:22:31.412Z,6.3
2017-05-16T01:23:50.088Z,6.3
2017-05-16T01:25:08.775Z,6.3
2017-05-16T01:26:27.421Z,6.2
2017-05-16T01:27:46.102Z,6.2
2017-05-16T01:29:04.742Z,6.2
2017-05-16T01:30:23.404Z,6.2
2017-05-16T01:31:42.052Z,6.2
2017-05-16T01:33:00.702Z,6.2
2017-05-16T01:34:19.345Z,6.2
2017-05-16T01:35:38.012Z,6.1
2017-05-16T01:36:56.706Z,6.1
2017-05-16T01:38:15.366Z,6.2
2017-05-16T01:39:34.063Z,6.2
2017-05-16T01:40:52.727Z,6.2
2017-05-16T01:42:11.377Z,6.2
2017-05-16T01:43:30.063Z,6.2
2017-05-16T01:44:48.749Z,6.1
2017-05-16T01:46:07.468Z,6.1
2017-05-16T01:47:26.167Z,6.1
2017-05-16T01:48:44.802Z,6.1
2017-05-16T01:50:03.436Z,6.1
2017-05-16T01:51:22.101Z,6.1
2017-05-16T01:52:40.794Z,6.1
2017-05-16T01:53:59.438Z,6.1
2017-05-16T01:55:18.091Z,6.2
2017-05-16T01:56:36.783Z,6.1
2017-05-16T01:57:55.457Z,6.1
2017-05-16T01:59:14.119Z,6.1
2017-05-16T02:00:32.817Z,6.1
2017-05-16T02:01:51.488Z,6.1
2017-05-16T02:03:10.160Z,6.1
2017-05-16T02:04:28.840Z,6
2017-05-16T02:05:47.530Z,6
2017-05-16T02:07:06.170Z,6
2017-05-16T02:08:24.809Z,6
2017-05-16T02:09:43.452Z,6
2017-05-16T02:11:02.133Z,6
2017-05-16T02:12:20.812Z,6
2017-05-16T02:13:39.464Z,5.9
2017-05-16T02:14:58.117Z,5.9
2017-05-16T02:16:16.780Z,5.9
2017-05-16T02:17:35.419Z,5.8
2017-05-16T02:18:54.091Z,5.8
2017-05-16T02:20:12.735Z,5.8
2017-05-16T02:21:31.401Z,5.8
2017-05-16T02:22:50.062Z,5.8
2017-05-16T02:24:08.718Z,5.8
2017-05-16T02:25:27.434Z,5.8
2017-05-16T02:26:46.090Z,5.8
2017-05-16T02:28:04.737Z,5.8
2017-05-16T02:29:23.381Z,5.9
2017-05-16T02:30:42.062Z,5.9
2017-05-16T02:32:00.714Z,5.9
2017-05-16T02:33:19.407Z,5.9
2017-05-16T02:34:38.055Z,5.9
2017-05-16T02:35:56.698Z,6
2017-05-16T02:37:15.343Z,6
2017-05-16T02:38:34.008Z,6
2017-05-16T02:39:52.649Z,6
2017-05-16T02:41:11.301Z,5.9
2017-05-16T02:42:29.997Z,5.9
2017-05-16T02:43:48.686Z,5.9
2017-05-16T02:45:07.377Z,5.8
2017-05-16T02:46:26.015Z,5.8
2017-05-16T02:47:44.665Z,5.8
2017-05-16T02:49:03.361Z,5.7
2017-05-16T02:50:22.035Z,5.7
2017-05-16T02:51:40.685Z,5.7
2017-05-16T02:52:59.368Z,5.7
2017-05-16T02:54:18.010Z,5.6
2017-05-16T02:55:36.706Z,5.6
2017-05-16T02:56:55.364Z,5.6
2017-05-16T02:58:14.049Z,5.5
2017-05-16T02:59:32.726Z,5.5
2017-05-16T03:00:51.366Z,5.5
2017-05-16T03:02:10.016Z,5.5
2017-05-16T03:03:28.698Z,5.5
2017-05-16T03:04:47.421Z,5.5
2017-05-16T03:06:06.082Z,5.5
2017-05-16T03:07:24.720Z,5.5
2017-05-16T03:08:43.359Z,5.5
2017-05-16T03:10:02.056Z,5.5
2017-05-16T03:11:20.700Z,5.5
2017-05-16T03:12:39.339Z,5.5
2017-05-16T03:13:58.007Z,5.5
2017-05-16T03:15:16.659Z,5.5
2017-05-16T03:16:35.354Z,5.5
2017-05-16T03:17:54.024Z,5.6
2017-05-16T03:19:12.669Z,5.6
2017-05-16T03:20:31.333Z,5.7
2017-05-16T03:21:49.978Z,5.7
2017-05-16T03:23:08.662Z,5.7
2017-05-16T03:24:27.374Z,5.7
2017-05-16T03:25:46.041Z,5.8
2017-05-16T03:27:04.681Z,5.8
2017-05-16T03:28:23.320Z,5.8
2017-05-16T03:29:41.974Z,5.8
2017-05-16T03:31:00.619Z,5.7
2017-05-16T03:32:19.282Z,5.7
2017-05-16T03:33:37.926Z,5.7
2017-05-16T03:34:56.562Z,5.6
2017-05-16T03:36:15.204Z,5.6
2017-05-16T03:37:33.871Z,5.6
2017-05-16T03:38:52.536Z,5.6
2017-05-16T03:40:11.210Z,5.7
2017-05-16T03:41:29.899Z,5.7
2017-05-16T03:42:48.538Z,5.7
2017-05-16T03:44:07.185Z,5.7
2017-05-16T03:45:25.861Z,5.7
2017-05-16T03:46:44.545Z,5.8
2017-05-16T03:48:03.185Z,5.8
2017-05-16T03:49:21.871Z,5.8
2017-05-16T03:50:40.532Z,5.8
2017-05-16T03:51:59.178Z,5.8
2017-05-16T03:53:17.825Z,5.8
2017-05-16T03:54:36.471Z,5.8
2017-05-16T03:55:55.112Z,5.8
2017-05-16T03:57:13.776Z,5.9
2017-05-16T03:58:32.454Z,5.9
2017-05-16T03:59:51.148Z,5.9
2017-05-16T04:01:09.824Z,6
2017-05-16T04:02:28.458Z,6
2017-05-16T04:03:47.105Z,6.1
2017-05-16T04:05:05.747Z,6.1
2017-05-16T04:06:24.390Z,6.1
2017-05-16T04:07:43.037Z,6.2
2017-05-16T04:09:01.681Z,6.2
2017-05-16T04:10:20.326Z,6.1
2017-05-16T04:11:38.999Z,6.1
2017-05-16T04:12:57.674Z,6.1
2017-05-16T04:14:16.323Z,6.1
2017-05-16T04:15:34.976Z,6.1
2017-05-16T04:16:53.632Z,6.1
2017-05-16T04:18:12.327Z,6.1
2017-05-16T04:19:31.027Z,6.1
2017-05-16T04:20:49.692Z,6.1
2017-05-16T04:22:08.342Z,6.1
2017-05-16T04:23:26.997Z,6.2
2017-05-16T04:24:45.657Z,6.2
2017-05-16T04:26:04.307Z,6.2
2017-05-16T04:27:23.002Z,6.3
2017-05-16T04:28:41.666Z,6.3
2017-05-16T04:30:00.314Z,6.4
2017-05-16T04:31:18.986Z,6.6
2017-05-16T04:32:37.643Z,6.7
2017-05-16T04:33:56.336Z,6.9
2017-05-16T04:35:14.975Z,7
2017-05-16T04:36:33.619Z,7.1
2017-05-16T04:37:52.316Z,7.2
2017-05-16T04:39:10.958Z,7.3
2017-05-16T04:40:29.599Z,7.3
2017-05-16T04:41:48.243Z,7.3
2017-05-16T04:43:06.913Z,7.3
2017-05-16T04:44:25.556Z,7.4
2017-05-16T04:45:44.242Z,7.4
2017-05-16T04:47:02.885Z,7.4
2017-05-16T04:48:21.543Z,7.5
2017-05-16T04:49:40.236Z,7.6
2017-05-16T04:50:58.901Z,7.6
2017-05-16T04:52:17.540Z,7.6
2017-05-16T04:53:36.184Z,7.7
2017-05-16T04:54:54.874Z,7.7
2017-05-16T04:56:13.531Z,7.8
2017-05-16T04:57:32.179Z,7.8
2017-05-16T04:58:50.822Z,7.8
2017-05-16T05:00:09.458Z,7.8
2017-05-16T05:01:28.135Z,7.9
2017-05-16T05:02:46.778Z,7.9
2017-05-16T05:04:05.443Z,8
2017-05-16T05:05:24.123Z,8.1
2017-05-16T05:06:42.773Z,8.1
2017-05-16T05:08:01.411Z,8.2
2017-05-16T05:09:20.046Z,8.3
2017-05-16T05:10:38.685Z,8.4
2017-05-16T05:11:57.389Z,8.5
2017-05-16T05:13:16.079Z,8.6
2017-05-16T05:14:34.726Z,8.6
2017-05-16T05:15:53.429Z,8.7
2017-05-16T05:17:12.071Z,8.7
2017-05-16T05:18:30.742Z,8.8
2017-05-16T05:19:49.408Z,8.8
2017-05-16T05:21:08.083Z,8.8
2017-05-16T05:22:26.777Z,8.8
2017-05-16T05:23:45.415Z,8.8
2017-05-16T05:25:04.081Z,8.8
2017-05-16T05:26:22.776Z,8.9
2017-05-16T05:27:41.450Z,8.9
2017-05-16T05:29:00.090Z,9
2017-05-16T05:30:18.740Z,9
2017-05-16T05:31:37.415Z,9.1
2017-05-16T05:32:56.059Z,9.2
2017-05-16T05:34:14.705Z,9.3
2017-05-16T05:35:33.350Z,9.4
2017-05-16T05:36:51.993Z,9.5
2017-05-16T05:38:10.634Z,9.6
2017-05-16T05:39:29.289Z,9.6
2017-05-16T05:40:47.951Z,9.7
2017-05-16T05:42:06.591Z,9.8
2017-05-16T05:43:25.285Z,9.9
2017-05-16T05:44:43.970Z,9.9
2017-05-16T05:46:02.621Z,10.1
2017-05-16T05:47:21.295Z,10.1
2017-05-16T05:48:39.961Z,10.2
2017-05-16T05:49:58.660Z,10.3
2017-05-16T05:51:17.395Z,10.4
2017-05-16T05:52:36.050Z,10.4
2017-05-16T05:53:54.753Z,10.5
2017-05-16T05:55:13.414Z,10.6
2017-05-16T05:56:32.120Z,10.7
2017-05-16T05:57:50.825Z,10.8
2017-05-16T05:59:09.537Z,10.9
2017-05-16T06:00:28.208Z,11
2017-05-16T06:01:46.867Z,11.1
2017-05-16T06:03:05.557Z,11.2
2017-05-16T06:04:24.217Z,11.3
2017-05-16T06:05:42.943Z,11.3
2017-05-16T06:07:01.638Z,11.4
2017-05-16T06:08:20.328Z,11.5
2017-05-16T06:09:39.017Z,11.6
2017-05-16T06:10:57.732Z,11.7
2017-05-16T06:12:16.391Z,11.8
2017-05-16T06:13:35.058Z,11.9
2017-05-16T06:14:53.715Z,12.1
2017-05-16T06:16:12.451Z,12.2
2017-05-16T06:17:31.164Z,12.4
2017-05-16T06:18:49.880Z,12.5
2017-05-16T06:20:08.548Z,12.6
2017-05-16T06:21:27.208Z,12.7
2017-05-16T06:22:45.918Z,12.9
2017-05-16T06:24:04.629Z,12.9
2017-05-16T06:25:23.339Z,13
2017-05-16T06:26:42.035Z,13.1
2017-05-16T06:28:00.707Z,13.3
2017-05-16T06:29:19.396Z,13.4
2017-05-16T06:30:38.049Z,13.5
2017-05-16T06:31:56.703Z,13.6
2017-05-16T06:33:15.378Z,13.7
2017-05-16T06:34:34.097Z,13.8
2017-05-16T06:35:52.754Z,14
2017-05-16T06:37:11.404Z,14.2
2017-05-16T06:38:30.105Z,14.4
2017-05-16T06:39:48.774Z,14.6
2017-05-16T06:41:07.433Z,14.7
2017-05-16T06:42:26.089Z,14.8
2017-05-16T06:43:44.774Z,14.9
2017-05-16T06:45:03.437Z,15
2017-05-16T06:46:22.120Z,15
2017-05-16T06:47:40.797Z,15
2017-05-16T06:48:59.455Z,15.1
2017-05-16T06:50:18.109Z,15.2
2017-05-16T06:51:36.791Z,15.2
2017-05-16T06:52:55.452Z,15.3
2017-05-16T06:54:14.187Z,15.4
2017-05-16T06:55:32.849Z,15.5
2017-05-16T06:56:51.551Z,15.6
2017-05-16T06:58:10.257Z,15.6
2017-05-16T06:59:28.946Z,15.7
2017-05-16T07:00:47.606Z,15.8
2017-05-16T07:02:06.270Z,15.9
2017-05-16T07:03:24.991Z,16
2017-05-16T07:04:43.682Z,16
2017-05-16T07:06:02.420Z,16.1
2017-05-16T07:07:21.095Z,16.2
2017-05-16T07:08:39.806Z,16.2
2017-05-16T07:09:58.463Z,16.2
2017-05-16T07:11:17.121Z,16.3
2017-05-16T07:12:35.778Z,16.3
2017-05-16T07:13:54.438Z,16.4
2017-05-16T07:15:13.097Z,16.5
2017-05-16T07:16:31.752Z,16.5
2017-05-16T07:17:50.446Z,16.5
2017-05-16T07:19:09.169Z,16.6
2017-05-16T07:20:27.857Z,16.7
2017-05-16T07:21:46.548Z,16.8
2017-05-16T07:23:05.232Z,16.8
2017-05-16T07:24:23.920Z,16.9
2017-05-16T07:25:42.592Z,16.9
2017-05-16T07:27:01.291Z,17
2017-05-16T07:28:19.953Z,17
2017-05-16T07:29:38.615Z,17.1
2017-05-16T07:30:57.293Z,17.1
2017-05-16T07:32:15.953Z,17.1
2017-05-16T07:33:34.608Z,17.1
2017-05-16T07:34:53.312Z,17.2
2017-05-16T07:36:11.971Z,17.3
2017-05-16T07:37:30.632Z,17.4
2017-05-16T07:38:49.301Z,17.5
2017-05-16T07:40:07.959Z,17.6
2017-05-16T07:41:26.621Z,17.7
2017-05-16T07:42:45.313Z,17.7
2017-05-16T07:44:04.037Z,17.9
2017-05-16T07:45:22.692Z,18
2017-05-16T07:46:41.354Z,18.1
2017-05-16T07:48:00.021Z,18.2
2017-05-16T07:49:18.679Z,18.4
2017-05-16T07:50:37.388Z,18.5
2017-05-16T07:51:56.066Z,18.7
2017-05-16T07:53:14.719Z,18.8
2017-05-16T07:54:33.419Z,19
2017-05-16T07:55:52.104Z,19
2017-05-16T07:57:10.790Z,19.1
2017-05-16T07:58:29.508Z,19.5
2017-05-16T07:59:48.177Z,19.7
2017-05-16T08:01:06.872Z,19.8
2017-05-16T08:02:25.584Z,20
2017-05-16T08:03:44.249Z,20
2017-05-16T08:05:02.913Z,20
2017-05-16T08:06:21.573Z,20
2017-05-16T08:07:40.231Z,20
2017-05-16T08:08:58.915Z,20.2
2017-05-16T08:10:17.569Z,20.4
2017-05-16T08:11:36.229Z,20.5
2017-05-16T08:12:54.919Z,20.6
2017-05-16T08:14:13.576Z,20.7
2017-05-16T08:15:32.241Z,20.8
2017-05-16T08:16:50.957Z,20.9
2017-05-16T08:18:09.636Z,21
2017-05-16T08:19:28.328Z,21
2017-05-16T08:20:47.043Z,20.9
2017-05-16T08:22:05.695Z,20.7
2017-05-16T08:23:24.355Z,20.6
2017-05-16T08:24:43.021Z,20.4
2017-05-16T08:26:01.732Z,20.1
2017-05-16T08:27:20.388Z,19.9
2017-05-16T08:28:39.144Z,19.7
2017-05-16T08:29:57.798Z,19.5
2017-05-16T08:31:16.485Z,19.4
2017-05-16T08:32:35.152Z,19.4
2017-05-16T08:33:53.819Z,19.4
2017-05-16T08:35:12.474Z,19.4
2017-05-16T08:36:31.137Z,19.5
2017-05-16T08:37:49.799Z,19.5
2017-05-16T08:39:08.460Z,19.6
2017-05-16T08:40:27.136Z,19.8
2017-05-16T08:41:45.792Z,20
2017-05-16T08:43:04.457Z,20.1
2017-05-16T08:44:23.167Z,20.3
2017-05-16T08:45:41.830Z,20.5
2017-05-16T08:47:00.492Z,20.7
2017-05-16T08:48:19.161Z,20.9
2017-05-16T08:49:37.813Z,21.1
2017-05-16T08:50:56.480Z,21.3
2017-05-16T08:52:15.141Z,21.3
2017-05-16T08:53:33.818Z,21.3
2017-05-16T08:54:52.505Z,21.4
2017-05-16T08:56:11.199Z,21.4
2017-05-16T08:57:29.909Z,21.5
2017-05-16T08:58:48.567Z,21.6
2017-05-16T09:00:07.253Z,21.7
2017-05-16T09:01:25.914Z,21.6
2017-05-16T09:02:44.571Z,21.7
2017-05-16T09:04:03.274Z,21.6
2017-05-16T09:05:21.980Z,21.5
2017-05-16T09:06:40.640Z,21.3
2017-05-16T09:07:59.355Z,21.1
2017-05-16T09:09:18.023Z,20.9
2017-05-16T09:10:36.685Z,20.7
2017-05-16T09:11:55.352Z,20.4
2017-05-16T09:13:14.180Z,20.3
2017-05-16T09:14:32.938Z,20.2
2017-05-16T09:15:51.645Z,20.1
2017-05-16T09:17:10.331Z,20.2
2017-05-16T09:18:29.036Z,20.2
2017-05-16T09:19:47.700Z,20.3
2017-05-16T09:21:06.409Z,20.5
2017-05-16T09:22:25.127Z,20.7
2017-05-16T09:23:43.804Z,21
2017-05-16T09:25:02.464Z,21.3
2017-05-16T09:26:21.178Z,21.6
2017-05-16T09:27:39.883Z,21.9
2017-05-16T09:28:58.556Z,22.1
2017-05-16T09:30:17.211Z,22.2
2017-05-16T09:31:35.905Z,22.3
2017-05-16T09:32:54.617Z,22.3
2017-05-16T09:34:13.294Z,22.3
2017-05-16T09:35:31.986Z,22.4
2017-05-16T09:36:50.649Z,22.5
2017-05-16T09:38:09.307Z,22.6
2017-05-16T09:39:27.991Z,22.8
2017-05-16T09:40:46.647Z,23
2017-05-16T09:42:05.343Z,23.3
2017-05-16T09:43:24.084Z,23.6
2017-05-16T09:44:42.741Z,24
2017-05-16T09:46:01.438Z,24.4
2017-05-16T09:47:20.115Z,24.8
2017-05-16T09:48:38.790Z,25.3
2017-05-16T09:49:57.453Z,25.7
2017-05-16T09:51:16.145Z,25.9
2017-05-16T09:52:34.805Z,26.1
2017-05-16T09:53:53.479Z,26.3
2017-05-16T09:55:12.324Z,26.3
2017-05-16T09:56:31.068Z,26.4
2017-05-16T09:57:49.723Z,26.5
2017-05-16T09:59:08.382Z,26.5
2017-05-16T10:00:27.041Z,26.6
2017-05-16T10:01:45.732Z,26.8
2017-05-16T10:03:04.457Z,27
2017-05-16T10:04:23.111Z,26.9
2017-05-16T10:05:41.781Z,27
2017-05-16T10:07:00.496Z,27
2017-05-16T10:08:19.175Z,27.1
2017-05-16T10:09:37.891Z,27.2
2017-05-16T10:10:56.553Z,27.3
2017-05-16T10:12:15.218Z,27.2
2017-05-16T10:13:33.902Z,27.2
2017-05-16T10:14:52.558Z,26.8
2017-05-16T10:16:11.220Z,26.9
2017-05-16T10:17:29.886Z,27.1
2017-05-16T10:18:48.568Z,27.1
2017-05-16T10:20:07.284Z,27.2
2017-05-16T10:21:25.957Z,27.4
2017-05-16T10:22:44.620Z,27.3
2017-05-16T10:24:03.323Z,27.4
2017-05-16T10:25:22.000Z,27.3
2017-05-16T10:26:40.683Z,27.6
2017-05-16T10:27:59.383Z,27.9
2017-05-16T10:29:18.044Z,28
2017-05-16T10:30:36.734Z,28.3
2017-05-16T10:31:55.440Z,28.1
2017-05-16T10:33:14.122Z,28.1
2017-05-16T10:34:32.847Z,28.1
2017-05-16T10:36:10.152Z,27.9
2017-05-16T10:37:28.832Z,28
2017-05-16T10:38:47.491Z,28
2017-05-16T10:40:06.202Z,28.1
2017-05-16T10:41:24.873Z,28
2017-05-16T10:42:43.551Z,27.9
2017-05-16T10:44:02.223Z,27.9
2017-05-16T10:45:20.881Z,27.9
2017-05-16T10:46:39.591Z,27.8
2017-05-16T10:47:58.248Z,27.8
2017-05-16T10:49:16.902Z,27.5
2017-05-16T10:50:35.569Z,27.2
2017-05-16T10:51:54.256Z,26.8
2017-05-16T10:53:12.920Z,26.5
2017-05-16T10:54:31.585Z,26.2
2017-05-16T10:55:50.265Z,25.9
2017-05-16T10:57:09.016Z,25.7
2017-05-16T10:58:27.730Z,25.5
2017-05-16T10:59:46.395Z,25.5
2017-05-16T11:01:05.059Z,25.4
2017-05-16T11:02:23.730Z,25.4
2017-05-16T11:03:42.417Z,25.2
2017-05-16T11:05:01.078Z,25.2
2017-05-16T11:06:19.759Z,25.2
2017-05-16T11:07:38.424Z,25.3
2017-05-16T11:08:57.139Z,25.4
2017-05-16T11:10:15.848Z,25.4
2017-05-16T11:11:34.558Z,25.6
2017-05-16T11:12:53.236Z,25.9
2017-05-16T11:14:11.897Z,26.1
2017-05-16T11:15:30.611Z,26.1
2017-05-16T11:16:49.293Z,26
2017-05-16T11:18:07.953Z,25.9
2017-05-16T11:19:26.611Z,25.8
2017-05-16T11:20:45.322Z,25.8
2017-05-16T11:22:04.012Z,25.6
2017-05-16T11:23:22.667Z,25.6
2017-05-16T11:24:41.329Z,25.6
2017-05-16T11:25:59.989Z,25.4
2017-05-16T11:27:18.644Z,25.6
2017-05-16T11:28:37.377Z,25.9
2017-05-16T11:29:56.072Z,26.3
2017-05-16T11:31:14.749Z,26.6
2017-05-16T11:32:33.406Z,26.8
2017-05-16T11:33:52.071Z,27.2
2017-05-16T11:35:10.778Z,27.6
2017-05-16T11:36:29.430Z,28
2017-05-16T11:37:48.149Z,28.3
2017-05-16T11:39:06.846Z,28.7
2017-05-16T11:40:25.556Z,28.8
2017-05-16T11:41:44.214Z,28.7
2017-05-16T11:43:02.886Z,28.8
2017-05-16T11:44:21.592Z,28.9
2017-05-16T11:45:40.309Z,29.4
2017-05-16T11:46:58.998Z,30.1
2017-05-16T11:48:17.662Z,30.3
2017-05-16T11:49:36.325Z,30.1
2017-05-16T11:50:54.988Z,29.9
2017-05-16T11:52:13.665Z,29.9
2017-05-16T11:53:32.429Z,29.9
2017-05-16T11:54:51.103Z,29.9
2017-05-16T11:56:09.759Z,29.9
2017-05-16T11:57:28.453Z,30
2017-05-16T11:58:47.165Z,30
2017-05-16T12:00:05.817Z,30
2017-05-16T12:01:24.473Z,30
2017-05-16T12:02:43.162Z,30
2017-05-16T12:04:01.873Z,29.9
2017-05-16T12:05:20.558Z,30
2017-05-16T12:06:39.266Z,29.9
2017-05-16T12:07:57.931Z,29.7
2017-05-16T12:09:16.606Z,29.8
2017-05-16T12:10:35.319Z,29.2
2017-05-16T12:11:54.023Z,29.1
2017-05-16T12:13:12.683Z,29.1
2017-05-16T12:14:31.336Z,29.3
2017-05-16T12:15:49.993Z,29.7
2017-05-16T12:17:08.701Z,30.4
2017-05-16T12:18:27.439Z,31.1
2017-05-16T12:19:46.102Z,31.7
2017-05-16T12:21:04.765Z,32.9
2017-05-16T12:22:23.426Z,34.3
2017-05-16T12:23:42.090Z,34.4
2017-05-16T12:25:00.826Z,34.6
2017-05-16T12:26:19.488Z,34.5
2017-05-16T12:27:38.167Z,34.3
2017-05-16T12:28:56.823Z,33.3
2017-05-16T12:30:15.513Z,32.3
2017-05-16T12:31:34.179Z,31.9
2017-05-16T12:32:52.839Z,32
2017-05-16T12:34:11.551Z,32.8
2017-05-16T12:35:30.266Z,32.3
2017-05-16T12:36:48.972Z,31.8
2017-05-16T12:38:07.693Z,31.6
2017-05-16T12:39:26.352Z,31.8
2017-05-16T12:40:45.036Z,31.8
2017-05-16T12:42:03.763Z,31.9
2017-05-16T12:43:22.478Z,31.6
2017-05-16T12:44:41.185Z,31.5
2017-05-16T12:45:59.839Z,31.8
2017-05-16T12:47:18.544Z,31.6
2017-05-16T12:48:37.201Z,31.9
2017-05-16T12:49:55.864Z,31.8
2017-05-16T12:51:14.569Z,31.4
2017-05-16T12:52:33.223Z,31.2
2017-05-16T12:53:51.881Z,31.2
2017-05-16T12:55:10.595Z,31.2
2017-05-16T12:56:29.321Z,31
2017-05-16T12:57:48.005Z,30.8
2017-05-16T12:59:06.699Z,31
2017-05-16T13:00:25.362Z,31.4
2017-05-16T13:01:44.051Z,31.7
2017-05-16T13:03:02.706Z,31.8
2017-05-16T13:04:21.370Z,32
2017-05-16T13:05:40.068Z,32.3
2017-05-16T13:06:58.779Z,33.1
2017-05-16T13:08:17.494Z,33.7
2017-05-16T13:09:36.151Z,34.4
2017-05-16T13:10:54.812Z,35
2017-05-16T13:12:13.527Z,35.7
2017-05-16T13:13:32.222Z,36.2
2017-05-16T13:14:50.883Z,36.6
2017-05-16T13:16:09.558Z,36.8
2017-05-16T13:17:28.212Z,36.8
2017-05-16T13:18:46.861Z,36.8
2017-05-16T13:20:05.557Z,36.7
2017-05-16T13:21:24.222Z,36.8
2017-05-16T13:22:42.884Z,36.9
2017-05-16T13:24:01.545Z,36.8
2017-05-16T13:25:20.239Z,36.9
2017-05-16T13:26:38.979Z,36.8
2017-05-16T13:27:57.660Z,36.6
2017-05-16T13:29:16.327Z,36.2
2017-05-16T13:30:34.990Z,36
2017-05-16T13:31:53.645Z,36
2017-05-16T13:33:12.378Z,36.1
2017-05-16T13:34:31.032Z,36.2
2017-05-16T13:35:49.723Z,36.4
2017-05-16T13:37:08.397Z,36.4
2017-05-16T13:38:27.061Z,36.5
2017-05-16T13:39:45.721Z,36.6
2017-05-16T13:41:04.375Z,36.2
2017-05-16T13:42:23.083Z,35.6
2017-05-16T13:43:41.774Z,35.4
2017-05-16T13:45:00.440Z,35.1
2017-05-16T13:46:19.125Z,34.7
2017-05-16T13:47:37.789Z,34.5
2017-05-16T13:48:56.480Z,34.3
2017-05-16T13:50:15.136Z,33.9
2017-05-16T13:51:33.815Z,33.4
2017-05-16T13:52:52.476Z,32.7
2017-05-16T13:54:11.139Z,32.5
2017-05-16T13:55:29.802Z,32.6
2017-05-16T13:56:48.510Z,32.7
2017-05-16T13:58:07.171Z,33
2017-05-16T13:59:25.852Z,32.3
2017-05-16T14:00:44.567Z,31.6
2017-05-16T14:02:03.281Z,31.1
2017-05-16T14:03:21.954Z,30.5
2017-05-16T14:04:40.621Z,30.1
2017-05-16T14:05:59.282Z,29.8
2017-05-16T14:07:17.976Z,29.9
2017-05-16T14:08:36.642Z,29.9
2017-05-16T14:09:55.354Z,29.9
2017-05-16T14:11:14.044Z,30
2017-05-16T14:12:32.705Z,30.1
2017-05-16T14:13:51.370Z,30.4
2017-05-16T14:15:10.072Z,30.7
2017-05-16T14:16:28.779Z,32.7
2017-05-16T14:17:47.448Z,34.8
2017-05-16T14:19:06.103Z,35
2017-05-16T14:20:24.768Z,35
2017-05-16T14:21:43.426Z,34.9
2017-05-16T14:23:02.131Z,34.8
2017-05-16T14:24:20.790Z,34.8
2017-05-16T14:25:39.472Z,34.9
2017-05-16T14:26:58.131Z,34.9
2017-05-16T14:28:16.799Z,35
2017-05-16T14:29:35.456Z,35.1
2017-05-16T14:30:54.138Z,35.1
2017-05-16T14:32:12.814Z,35.3
2017-05-16T14:33:31.467Z,35.4
2017-05-16T14:34:50.126Z,35.7
2017-05-16T14:36:08.795Z,35.8
2017-05-16T14:37:27.484Z,35.9
2017-05-16T14:38:46.145Z,36
2017-05-16T14:40:04.809Z,36
2017-05-16T14:41:23.503Z,36
2017-05-16T14:42:42.223Z,36.3
2017-05-16T14:44:00.879Z,36.3
2017-05-16T14:45:19.561Z,35.7
2017-05-16T14:46:38.263Z,35.2
2017-05-16T14:47:56.944Z,34.9
2017-05-16T14:49:15.659Z,34.6
2017-05-16T14:50:34.316Z,34.4
2017-05-16T14:51:52.982Z,34.1
2017-05-16T14:53:11.659Z,32.9
2017-05-16T14:54:30.324Z,32.1
2017-05-16T14:55:49.012Z,31.4
2017-05-16T14:57:07.677Z,31.1
2017-05-16T14:58:26.381Z,31
2017-05-16T14:59:45.033Z,30.8
2017-05-16T15:01:03.694Z,30.5
2017-05-16T15:02:22.392Z,30.6
2017-05-16T15:03:41.047Z,30.7
2017-05-16T15:04:59.703Z,30.8
2017-05-16T15:06:18.374Z,30.7
2017-05-16T15:07:37.040Z,30.4
2017-05-16T15:08:55.701Z,30.3
2017-05-16T15:10:14.361Z,30.3
2017-05-16T15:11:33.020Z,30.2
2017-05-16T15:12:51.681Z,30.1
2017-05-16T15:14:10.381Z,30.1
2017-05-16T15:15:29.061Z,30.4
2017-05-16T15:16:47.712Z,30.6
2017-05-16T15:18:06.394Z,30.9
2017-05-16T15:19:25.085Z,31.1
2017-05-16T15:20:43.761Z,31.5
2017-05-16T15:22:02.441Z,31.5
2017-05-16T15:23:21.100Z,31.5
2017-05-16T15:24:39.767Z,31.2
2017-05-16T15:25:58.427Z,30.9
2017-05-16T15:27:17.109Z,30.5
2017-05-16T15:28:35.783Z,30.2
2017-05-16T15:29:54.489Z,29.9
2017-05-16T15:31:13.152Z,29.7
2017-05-16T15:32:31.811Z,29.4
2017-05-16T15:33:50.538Z,29.5
2017-05-16T15:35:09.193Z,29.6
2017-05-16T15:36:27.858Z,29.6
2017-05-16T15:37:46.566Z,29.7
2017-05-16T15:39:05.219Z,29.6
2017-05-16T15:40:23.907Z,29.4
2017-05-16T15:41:42.592Z,29.2
2017-05-16T15:43:01.283Z,28.9
2017-05-16T15:44:19.965Z,28.6
2017-05-16T15:45:38.620Z,28.3
2017-05-16T15:46:57.335Z,28
2017-05-16T15:48:16.048Z,27.8
2017-05-16T15:49:34.713Z,27.9
2017-05-16T15:50:53.417Z,27.9
2017-05-16T15:52:12.083Z,28
2017-05-16T15:53:30.741Z,28
2017-05-16T15:54:49.403Z,28.1
2017-05-16T15:56:08.075Z,28.1
2017-05-16T15:57:26.771Z,27.9
2017-05-16T15:58:45.480Z,27.8
2017-05-16T16:00:04.151Z,27.9
2017-05-16T16:01:22.814Z,27.8
2017-05-16T16:02:41.474Z,27.7
2017-05-16T16:04:00.140Z,27.4
2017-05-16T16:05:18.846Z,27.6
2017-05-16T16:06:37.552Z,27.2
2017-05-16T16:07:56.212Z,26.9
2017-05-16T16:09:14.913Z,26.7
2017-05-16T16:10:33.578Z,26.4
2017-05-16T16:11:52.287Z,26.2
2017-05-16T16:13:10.940Z,26.2
2017-05-16T16:14:29.595Z,26.2
2017-05-16T16:15:48.262Z,26.1
2017-05-16T16:17:06.953Z,26.3
2017-05-16T16:18:25.612Z,26.3
2017-05-16T16:19:44.322Z,27.1
2017-05-16T16:21:02.990Z,28.4
2017-05-16T16:22:21.691Z,28.8
2017-05-16T16:23:40.355Z,28.6
2017-05-16T16:24:59.040Z,28.6
2017-05-16T16:26:17.709Z,28.4
2017-05-16T16:27:36.363Z,30.8
2017-05-16T16:28:55.021Z,34.3
2017-05-16T16:30:13.747Z,34.6
2017-05-16T16:31:32.459Z,34.8
2017-05-16T16:32:51.126Z,34.9
2017-05-16T16:34:09.806Z,34.9
2017-05-16T16:35:28.464Z,34.9
2017-05-16T16:36:47.141Z,34.8
2017-05-16T16:38:05.796Z,34.8
2017-05-16T16:39:24.504Z,34.9
2017-05-16T16:40:43.202Z,34.9
2017-05-16T16:42:01.863Z,35
2017-05-16T16:43:20.552Z,35
2017-05-16T16:44:39.219Z,34.8
2017-05-16T16:45:57.890Z,34.6
2017-05-16T16:47:16.549Z,34.5
2017-05-16T16:48:35.256Z,34.4
2017-05-16T16:49:53.996Z,34.3
2017-05-16T16:51:12.701Z,33.6
2017-05-16T16:52:31.398Z,33
2017-05-16T16:53:50.060Z,34.3
2017-05-16T16:55:08.714Z,34.4
2017-05-16T16:56:27.405Z,34.4
2017-05-16T16:57:46.066Z,34.5
2017-05-16T16:59:04.716Z,34.6
2017-05-16T17:00:23.371Z,34.6
2017-05-16T17:01:42.078Z,34.6
2017-05-16T17:03:00.769Z,34.7
2017-05-16T17:04:19.443Z,34.7
2017-05-16T17:05:38.114Z,34.7
2017-05-16T17:06:56.776Z,34.8
2017-05-16T17:08:15.506Z,34.8
2017-05-16T17:09:34.175Z,34.9
2017-05-16T17:10:52.840Z,35
2017-05-16T17:12:11.551Z,35.1
2017-05-16T17:13:30.236Z,35.2
2017-05-16T17:14:48.942Z,35.2
2017-05-16T17:16:07.653Z,35.3
2017-05-16T17:17:26.334Z,35.3
2017-05-16T17:18:44.994Z,35.3
2017-05-16T17:20:03.658Z,35.3
2017-05-16T17:21:22.383Z,35.3
2017-05-16T17:22:41.065Z,35.3
2017-05-16T17:23:59.744Z,35.4
2017-05-16T17:25:18.407Z,35.4
2017-05-16T17:26:37.065Z,35.4
2017-05-16T17:27:55.721Z,35.4
2017-05-16T17:29:14.402Z,35.3
2017-05-16T17:30:33.069Z,35.1
2017-05-16T17:31:51.734Z,34.8
2017-05-16T17:33:10.440Z,34.5
2017-05-16T17:34:29.146Z,33.7
2017-05-16T17:35:47.863Z,31.7
2017-05-16T17:37:06.551Z,30
2017-05-16T17:38:25.236Z,28.9
2017-05-16T17:39:43.944Z,28.1
2017-05-16T17:41:02.634Z,27.5
2017-05-16T17:42:21.298Z,26.9
2017-05-16T17:43:39.962Z,26.5
2017-05-16T17:44:58.619Z,26.2
2017-05-16T17:46:17.329Z,25.6